createdAt,value
2022-12-24T07:10:01.547Z,13.75
2022-12-24T07:13:03.610Z,16.48
2022-12-24T07:16:21.563Z,22.45
2022-12-24T07:23:40.637Z,22.63
2022-12-24T07:26:47.440Z,19.30
2022-12-24T07:31:39.696Z,28.65
2022-12-24T07:34:26.052Z,17.58
2022-12-24T07:37:33.154Z,18.83
2022-12-24T07:40:25.052Z,24.63
2022-12-24T07:47:30.795Z,18.63
2022-12-24T07:50:52.213Z,24.33
2022-12-24T07:54:04.501Z,27.67
2022-12-24T07:57:34.365Z,27.25
2022-12-24T08:39:39.067Z,37.47
2022-12-24T08:42:29.805Z,26.70
2022-12-24T08:45:21.600Z,26.90
2022-12-24T08:48:19.234Z,29.45
2022-12-24T08:51:22.768Z,36.65
2022-12-24T08:54:27.168Z,38.30
2022-12-24T08:57:38.474Z,36.45
2022-12-24T09:00:28.571Z,28.52
2022-12-24T09:03:23.510Z,25.23
2022-12-24T09:06:16.557Z,36.80
2022-12-24T09:09:08.425Z,33.15
2022-12-24T09:11:57.643Z,36.83
2022-12-24T09:14:46.917Z,37.75
2022-12-24T09:17:46.625Z,35.38
2022-12-24T09:20:35.378Z,33.90
2022-12-24T09:23:30.926Z,32.88
2022-12-24T09:26:27.266Z,35.55
2022-12-24T09:29:23.879Z,35.78
2022-12-24T09:32:14.859Z,37.65
2022-12-24T09:35:25.976Z,33.60
2022-12-24T09:42:09.028Z,39.67
2022-12-24T09:45:49.111Z,41.28
2022-12-24T09:48:48.346Z,35.78
2022-12-24T09:51:43.191Z,34.75
2022-12-24T09:54:37.174Z,30.27
2022-12-24T09:57:37.533Z,26.10
2022-12-24T10:00:34.059Z,30.38
2022-12-24T10:03:25.051Z,22.27
2022-12-24T10:06:29.345Z,32.90
2022-12-24T10:09:47.679Z,27.15
2022-12-24T10:16:59.312Z,30.02
2022-12-24T10:20:08.943Z,36.05
2022-12-24T10:38:51.633Z,31.27
2022-12-24T10:41:53.325Z,36.72
2022-12-24T10:46:08.882Z,32.47
2022-12-24T10:50:30.043Z,30.35
2022-12-24T11:12:13.789Z,28.08
2022-12-24T11:42:04.324Z,25.92
2022-12-24T11:44:54.178Z,36.15
2022-12-24T11:47:45.968Z,34.50
2022-12-24T12:06:00.834Z,36.20
2022-12-24T12:09:28.051Z,29.92
2022-12-24T12:12:56.540Z,26.67
2022-12-24T12:16:04.888Z,32.22
2022-12-24T12:19:45.850Z,22.83
2022-12-24T12:29:27.774Z,27.23
2022-12-24T12:32:43.170Z,24.48
2022-12-24T12:39:17.086Z,24.35
2022-12-24T12:42:35.932Z,33.35
2022-12-24T12:45:58.402Z,25.20
2022-12-24T12:49:07.846Z,30.85
2022-12-24T12:52:23.223Z,22.45
2022-12-24T12:55:44.837Z,31.58
2022-12-24T12:59:00.993Z,36.92
2022-12-24T13:02:13.876Z,24.13
2022-12-24T13:05:58.436Z,21.13
2022-12-24T13:09:39.286Z,16.02
2022-12-24T13:12:41.045Z,26.38
2022-12-24T13:15:49.944Z,17.05
2022-12-24T13:19:09.207Z,19.95
2022-12-24T13:21:58.011Z,22.98
2022-12-24T13:24:55.170Z,19.92
2022-12-24T13:27:43.444Z,19.88
2022-12-24T13:30:41.248Z,23.60
2022-12-24T13:33:40.653Z,24.50
2022-12-24T13:37:06.591Z,17.10
2022-12-24T13:40:07.083Z,26.42
2022-12-24T13:43:05.345Z,24.88
2022-12-24T13:45:56.580Z,22.42
2022-12-24T13:48:49.050Z,22.23
2022-12-24T13:51:37.449Z,30.30
2022-12-24T13:54:35.556Z,20.25
2022-12-24T13:57:49.528Z,26.38
2022-12-24T14:01:04.208Z,19.60
2022-12-24T14:07:09.245Z,29.95
2022-12-24T14:11:05.626Z,25.48
2022-12-24T14:15:08.932Z,23.40
2022-12-24T14:18:31.846Z,26.02
2022-12-24T14:23:09.489Z,22.42
2022-12-24T14:54:11.428Z,26.30
2022-12-24T14:57:23.460Z,31.15
2022-12-24T15:00:24.942Z,30.10
2022-12-24T15:03:16.670Z,30.75
2022-12-24T15:06:07.097Z,27.73
2022-12-24T15:08:55.880Z,30.45
2022-12-24T15:11:46.658Z,37.13
2022-12-24T15:14:48.847Z,35.53
2022-12-24T15:17:44.496Z,30.95
2022-12-24T15:20:33.686Z,32.20
2022-12-24T15:23:28.508Z,41.72
2022-12-24T15:26:22.115Z,29.75
2022-12-24T15:29:40.148Z,30.48
2022-12-24T15:32:28.134Z,29.40
2022-12-24T15:36:00.521Z,28.30
2022-12-24T15:38:55.479Z,27.30
2022-12-24T15:42:06.809Z,37.03
2022-12-24T15:45:28.534Z,26.38
2022-12-24T15:48:31.335Z,28.88
2022-12-24T15:51:51.718Z,34.22
2022-12-24T16:06:13.152Z,33.60
2022-12-24T16:09:06.532Z,32.90
2022-12-24T16:12:01.063Z,38.45
2022-12-24T16:15:00.007Z,34.22
2022-12-24T16:17:53.193Z,42.00
2022-12-24T16:20:49.732Z,39.13
2022-12-24T16:23:59.966Z,39.83
2022-12-24T16:26:59.400Z,30.50
2022-12-24T16:29:48.223Z,34.05
2022-12-24T16:32:59.697Z,40.90
2022-12-24T16:42:39.865Z,53.42
2022-12-24T16:45:39.441Z,53.35
2022-12-24T16:48:34.377Z,37.78
2022-12-24T16:51:25.284Z,45.95
2022-12-24T16:54:18.594Z,42.55
2022-12-24T16:57:24.796Z,41.30
2022-12-24T17:06:18.949Z,31.92
2022-12-24T17:09:19.391Z,38.85
2022-12-24T17:12:11.419Z,30.15
2022-12-24T17:15:20.156Z,39.53
2022-12-24T17:18:16.619Z,30.42
2022-12-24T17:21:08.155Z,40.95
2022-12-24T17:24:04.979Z,29.77
2022-12-24T17:30:44.462Z,31.48
2022-12-24T17:33:36.789Z,34.30
2022-12-24T17:36:36.047Z,36.72
2022-12-24T17:39:31.752Z,40.33
2022-12-24T17:42:21.135Z,44.85
2022-12-24T17:45:23.649Z,28.92
2022-12-24T17:48:28.895Z,34.22
2022-12-24T17:51:24.644Z,32.20
2022-12-24T17:54:42.647Z,47.17
2022-12-24T17:57:42.010Z,39.35
2022-12-24T18:00:35.286Z,34.25
2022-12-24T18:03:31.569Z,47.07
2022-12-24T18:07:02.198Z,43.40
2022-12-24T18:10:11.040Z,47.00
2022-12-24T18:13:05.998Z,40.28
2022-12-24T18:16:11.416Z,41.35
2022-12-24T18:19:12.629Z,38.42
2022-12-24T18:22:08.347Z,31.73
2022-12-24T18:25:03.310Z,39.90
2022-12-24T18:27:55.382Z,39.03
2022-12-24T18:30:48.613Z,36.47
2022-12-24T18:34:01.756Z,32.00
2022-12-24T18:36:58.937Z,33.78
2022-12-24T18:43:28.075Z,35.10
2022-12-24T18:46:33.812Z,28.70
2022-12-24T18:49:27.295Z,31.27
2022-12-24T18:52:27.977Z,47.58
2022-12-24T18:55:24.118Z,38.40
2022-12-24T18:58:17.491Z,39.10
2022-12-24T19:01:23.708Z,40.70
2022-12-24T19:04:17.574Z,32.33
2022-12-24T19:07:28.914Z,29.38
2022-12-24T19:10:31.671Z,37.35
2022-12-24T19:13:37.136Z,33.42
2022-12-24T19:21:56.508Z,27.97
2022-12-24T19:25:19.782Z,30.85
2022-12-24T19:28:41.512Z,32.08
2022-12-24T19:32:04.821Z,33.58
2022-12-24T19:39:42.440Z,29.65
2022-12-24T21:00:32.106Z,35.08
2022-12-24T21:04:11.853Z,42.63
